createdAt,value
2019-02-15T00:01:21.023Z,26.60
2019-02-15T00:03:50.618Z,24.87
2019-02-15T00:06:20.580Z,25.43
2019-02-15T00:08:50.362Z,24.80
2019-02-15T00:11:20.113Z,26.17
2019-02-15T00:13:49.797Z,24.40
2019-02-15T00:16:19.790Z,26.73
2019-02-15T00:19:08.407Z,24.43
2019-02-15T00:21:46.817Z,27.23
2019-02-15T00:24:16.466Z,24.47
2019-02-15T00:26:46.208Z,25.40
2019-02-15T00:29:16.352Z,25.00
2019-02-15T00:31:45.980Z,25.67
2019-02-15T00:34:15.755Z,26.17
2019-02-15T00:36:46.240Z,27.27
2019-02-15T00:39:16.095Z,25.00
2019-02-15T00:41:45.859Z,25.73
2019-02-15T00:44:15.752Z,26.10
2019-02-15T00:46:59.171Z,25.33
2019-02-15T00:49:35.197Z,26.17
2019-02-15T00:52:23.997Z,26.33
2019-02-15T00:55:01.511Z,25.20
2019-02-15T00:57:53.074Z,25.33
2019-02-15T01:00:59.999Z,23.50
2019-02-15T01:03:54.766Z,24.33
2019-02-15T01:06:39.988Z,24.77
2019-02-15T01:09:29.045Z,23.37
2019-02-15T01:12:17.947Z,23.17
2019-02-15T01:14:47.690Z,21.37
2019-02-15T01:17:17.455Z,23.30
2019-02-15T01:19:47.456Z,21.00
2019-02-15T01:22:17.494Z,22.50
2019-02-15T01:24:47.282Z,23.00
2019-02-15T01:27:47.858Z,21.53
2019-02-15T01:30:34.834Z,20.67
2019-02-15T01:33:32.567Z,22.77
2019-02-15T01:36:10.436Z,23.73
2019-02-15T01:39:05.768Z,21.20
2019-02-15T01:41:53.695Z,21.23
2019-02-15T01:44:48.530Z,20.73
2019-02-15T01:47:22.348Z,21.73
2019-02-15T01:49:52.365Z,20.13
2019-02-15T01:52:21.989Z,19.00
2019-02-15T01:54:51.603Z,17.80
2019-02-15T01:57:21.653Z,16.90
2019-02-15T01:59:51.424Z,18.47
2019-02-15T02:02:23.173Z,18.40
2019-02-15T02:04:53.042Z,20.60
2019-02-15T02:07:22.907Z,16.87
2019-02-15T02:09:53.185Z,20.77
2019-02-15T02:12:23.111Z,19.53
2019-02-15T02:14:52.965Z,19.70
2019-02-15T02:17:23.007Z,20.33
2019-02-15T02:19:54.704Z,21.03
2019-02-15T02:22:24.632Z,19.93
2019-02-15T02:24:54.832Z,18.80
2019-02-15T02:27:25.257Z,18.47
2019-02-15T02:29:55.346Z,17.80
2019-02-15T02:32:25.221Z,17.80
2019-02-15T02:34:56.265Z,17.10
2019-02-15T02:37:26.234Z,16.47
2019-02-15T02:39:56.448Z,18.03
2019-02-15T02:42:26.545Z,17.17
2019-02-15T02:44:56.472Z,18.40
2019-02-15T02:47:26.316Z,19.43
2019-02-15T02:49:56.242Z,20.13
2019-02-15T02:52:26.030Z,20.63
2019-02-15T02:54:56.193Z,20.70
2019-02-15T02:57:26.064Z,19.33
2019-02-15T02:59:56.015Z,20.70
2019-02-15T03:02:26.163Z,20.93
2019-02-15T03:04:56.491Z,22.10
2019-02-15T03:07:26.512Z,22.30
2019-02-15T03:09:56.599Z,23.00
2019-02-15T03:12:26.727Z,21.77
2019-02-15T03:14:56.667Z,22.50
2019-02-15T03:17:26.468Z,22.40
2019-02-15T03:19:56.458Z,24.10
2019-02-15T03:22:26.392Z,22.83
2019-02-15T03:24:56.391Z,24.70
2019-02-15T03:27:26.622Z,25.27
2019-02-15T03:29:56.540Z,24.60
2019-02-15T03:32:26.566Z,24.30
2019-02-15T03:34:56.592Z,24.00
2019-02-15T03:37:51.282Z,22.57
2019-02-15T03:40:24.626Z,23.50
2019-02-15T03:42:54.323Z,23.87
2019-02-15T03:45:24.324Z,23.33
2019-02-15T03:47:54.409Z,25.20
2019-02-15T03:50:24.290Z,23.80
2019-02-15T03:52:54.265Z,26.27
2019-02-15T03:55:24.491Z,21.67
2019-02-15T03:57:54.320Z,22.37
2019-02-15T04:00:24.302Z,22.43
2019-02-15T04:02:54.377Z,22.40
2019-02-15T04:05:24.487Z,21.33
2019-02-15T04:07:54.330Z,23.30
2019-02-15T04:10:24.579Z,20.43
2019-02-15T04:12:54.316Z,20.90
2019-02-15T04:15:24.064Z,21.33
2019-02-15T04:17:53.849Z,20.33
2019-02-15T04:20:23.695Z,20.57
2019-02-15T04:22:53.518Z,21.33
2019-02-15T04:25:23.664Z,20.27
2019-02-15T04:27:53.469Z,19.83
2019-02-15T04:30:23.112Z,19.20
2019-02-15T04:32:53.029Z,19.97
2019-02-15T04:35:23.129Z,19.93
2019-02-15T04:37:52.951Z,20.57
2019-02-15T04:40:22.920Z,20.57
2019-02-15T04:42:53.007Z,21.93
2019-02-15T04:45:22.818Z,21.70
2019-02-15T04:47:52.775Z,19.33
2019-02-15T04:50:22.768Z,21.27
2019-02-15T04:52:52.784Z,21.77
2019-02-15T04:55:22.847Z,19.23
2019-02-15T04:57:52.966Z,19.20
2019-02-15T05:00:22.932Z,19.30
2019-02-15T05:02:53.059Z,18.57
2019-02-15T05:05:23.126Z,19.13
2019-02-15T05:07:52.846Z,17.23
2019-02-15T05:10:22.884Z,16.93
2019-02-15T05:12:52.799Z,16.53
2019-02-15T05:15:22.470Z,17.07
2019-02-15T05:17:52.318Z,15.87
2019-02-15T05:20:21.998Z,16.70
2019-02-15T05:22:51.668Z,16.93
2019-02-15T05:25:21.594Z,17.23
2019-02-15T05:27:51.140Z,16.93
2019-02-15T05:30:20.997Z,17.73
2019-02-15T05:32:50.879Z,18.10
2019-02-15T05:35:20.589Z,17.57
2019-02-15T05:37:50.309Z,17.63
2019-02-15T05:40:20.227Z,18.00
2019-02-15T05:42:49.907Z,18.27
2019-02-15T05:45:19.673Z,18.40
2019-02-15T05:47:49.487Z,19.23
2019-02-15T05:50:19.134Z,17.90
2019-02-15T05:52:48.807Z,17.37
2019-02-15T05:55:18.846Z,18.60
2019-02-15T05:57:48.560Z,18.43
2019-02-15T06:00:18.253Z,16.83
2019-02-15T06:02:48.344Z,15.50
2019-02-15T06:05:18.127Z,15.70
2019-02-15T06:07:48.037Z,15.23
2019-02-15T06:10:17.852Z,16.00
2019-02-15T06:12:47.526Z,15.67
2019-02-15T06:15:17.213Z,16.90
2019-02-15T06:17:47.278Z,15.60
2019-02-15T06:20:17.022Z,15.23
2019-02-15T06:22:46.702Z,14.50
2019-02-15T06:25:16.365Z,14.67
2019-02-15T06:27:45.954Z,15.43
2019-02-15T06:30:15.570Z,14.83
2019-02-15T06:32:45.327Z,16.20
2019-02-15T06:35:15.214Z,15.37
2019-02-15T06:37:44.908Z,16.27
2019-02-15T06:40:14.765Z,16.23
2019-02-15T06:42:44.262Z,17.53
2019-02-15T06:45:13.930Z,16.70
2019-02-15T06:47:43.675Z,16.90
2019-02-15T06:50:13.661Z,28.80
2019-02-15T06:52:43.337Z,17.20
2019-02-15T06:55:13.160Z,16.63
2019-02-15T06:57:42.850Z,16.87
2019-02-15T07:00:47.057Z,18.03
2019-02-15T07:03:47.552Z,17.73
2019-02-15T07:06:17.395Z,17.43
2019-02-15T07:08:47.035Z,17.17
2019-02-15T07:11:16.685Z,17.63
2019-02-15T07:13:46.530Z,17.77
2019-02-15T07:16:16.161Z,17.10
2019-02-15T07:18:45.751Z,20.13
2019-02-15T07:21:15.768Z,17.67
2019-02-15T07:23:45.372Z,18.87
2019-02-15T07:26:15.072Z,17.60
2019-02-15T07:28:44.961Z,17.47
2019-02-15T07:31:14.646Z,17.40
2019-02-15T07:33:44.305Z,18.47
2019-02-15T07:36:14.254Z,17.90
2019-02-15T07:38:44.136Z,17.50
2019-02-15T07:41:13.706Z,18.77
2019-02-15T07:43:43.579Z,17.63
2019-02-15T07:46:13.281Z,17.57
2019-02-15T07:48:43.064Z,19.83
2019-02-15T07:51:12.990Z,15.50
2019-02-15T07:53:42.811Z,16.50
2019-02-15T07:56:12.397Z,15.63
2019-02-15T07:58:42.281Z,17.67
2019-02-15T08:01:11.990Z,17.27
2019-02-15T08:03:41.608Z,17.77
2019-02-15T08:06:11.312Z,19.13
2019-02-15T08:08:40.991Z,19.27
2019-02-15T08:11:10.783Z,19.57
2019-02-15T08:13:40.698Z,19.17
2019-02-15T08:16:10.400Z,18.50
2019-02-15T08:18:39.962Z,15.73
2019-02-15T08:21:09.735Z,17.63
2019-02-15T08:23:39.404Z,16.43
2019-02-15T08:26:09.274Z,15.83
2019-02-15T08:28:39.120Z,17.37
2019-02-15T08:31:08.856Z,17.93
2019-02-15T08:33:38.503Z,19.80
2019-02-15T08:36:08.408Z,18.30
2019-02-15T08:38:37.998Z,18.47
2019-02-15T08:41:07.675Z,18.60
2019-02-15T08:43:37.622Z,19.40
2019-02-15T08:46:07.332Z,19.93
2019-02-15T08:48:45.725Z,19.20
2019-02-15T08:51:08.689Z,21.43
2019-02-15T08:53:38.443Z,21.57
2019-02-15T08:56:08.151Z,21.50
2019-02-15T08:58:38.048Z,21.50
2019-02-15T09:01:07.942Z,22.93
2019-02-15T09:03:37.576Z,20.30
2019-02-15T09:06:07.201Z,20.83
2019-02-15T09:08:36.847Z,22.63
2019-02-15T09:11:06.421Z,23.87
2019-02-15T09:13:36.228Z,21.23
2019-02-15T09:16:10.399Z,23.03
2019-02-15T09:18:37.366Z,23.23
2019-02-15T09:21:07.031Z,24.73
2019-02-15T09:23:36.738Z,23.93
2019-02-15T09:26:06.484Z,24.23
2019-02-15T09:28:40.335Z,21.27
2019-02-15T09:31:09.929Z,23.70
2019-02-15T09:33:39.668Z,24.00
2019-02-15T09:36:09.628Z,23.53
2019-02-15T09:38:39.262Z,23.10
2019-02-15T09:41:08.894Z,23.33
2019-02-15T09:43:38.712Z,22.07
2019-02-15T09:46:08.476Z,22.27
2019-02-15T09:48:38.372Z,21.40
2019-02-15T09:51:08.193Z,22.70
2019-02-15T09:53:37.739Z,20.10
2019-02-15T09:56:07.462Z,19.13
2019-02-15T09:58:37.299Z,18.03
2019-02-15T10:01:06.996Z,18.67
2019-02-15T10:03:36.717Z,17.87
2019-02-15T10:06:06.408Z,18.77
2019-02-15T10:08:36.281Z,17.80
2019-02-15T10:11:05.981Z,19.23
2019-02-15T10:13:35.820Z,17.93
2019-02-15T10:16:05.688Z,18.33
2019-02-15T10:18:35.359Z,17.97
2019-02-15T10:21:05.002Z,18.07
2019-02-15T10:23:34.946Z,17.40
2019-02-15T10:26:04.893Z,19.67
2019-02-15T10:28:34.494Z,18.73
2019-02-15T10:31:04.512Z,19.00
2019-02-15T10:33:34.405Z,22.00
2019-02-15T10:36:04.107Z,18.13
2019-02-15T10:38:33.927Z,21.07
2019-02-15T10:41:03.696Z,20.33
2019-02-15T10:43:33.558Z,20.80
2019-02-15T10:46:03.462Z,22.27
2019-02-15T10:48:33.388Z,21.73
2019-02-15T10:51:03.603Z,23.87
2019-02-15T10:53:33.361Z,23.53
2019-02-15T10:56:03.097Z,23.37
2019-02-15T10:58:32.868Z,24.07
2019-02-15T11:01:02.734Z,22.13
2019-02-15T11:03:32.576Z,20.27
2019-02-15T11:06:02.385Z,20.80
2019-02-15T11:08:32.127Z,19.67
2019-02-15T11:11:01.865Z,21.17
2019-02-15T11:13:31.559Z,21.93
2019-02-15T11:16:01.237Z,22.30
2019-02-15T11:18:31.032Z,22.43
2019-02-15T11:21:00.866Z,21.10
2019-02-15T11:23:30.453Z,20.13
2019-02-15T11:26:00.372Z,19.93
2019-02-15T11:28:30.200Z,18.10
2019-02-15T11:30:59.909Z,20.17
2019-02-15T11:33:29.874Z,19.40
2019-02-15T11:35:59.782Z,18.13
2019-02-15T11:38:29.524Z,18.20
2019-02-15T11:40:59.225Z,19.23
2019-02-15T11:43:29.058Z,19.17
2019-02-15T11:45:58.634Z,18.40
2019-02-15T11:48:29.503Z,20.03
2019-02-15T11:50:59.570Z,20.23
2019-02-15T11:53:29.365Z,18.33
2019-02-15T11:55:58.905Z,21.33
2019-02-15T11:58:28.891Z,20.40
2019-02-15T12:00:58.700Z,21.03
2019-02-15T12:03:28.388Z,20.60
2019-02-15T12:05:58.076Z,20.30
2019-02-15T12:08:28.002Z,20.77
2019-02-15T12:10:57.629Z,21.07
2019-02-15T12:13:27.482Z,20.60
2019-02-15T12:15:57.169Z,19.50
2019-02-15T12:18:26.758Z,21.40
2019-02-15T12:20:56.750Z,21.70
2019-02-15T12:23:28.436Z,21.07
2019-02-15T12:25:58.512Z,21.67
2019-02-15T12:28:28.295Z,20.63
2019-02-15T12:30:58.029Z,19.83
2019-02-15T12:33:27.800Z,17.23
2019-02-15T12:35:57.427Z,17.57
2019-02-15T12:38:27.277Z,21.37
2019-02-15T12:40:57.062Z,21.87
2019-02-15T12:43:26.759Z,20.67
2019-02-15T12:45:56.549Z,20.37
2019-02-15T12:48:26.567Z,21.27
2019-02-15T12:50:56.574Z,20.77
2019-02-15T12:53:26.613Z,21.20
2019-02-15T12:55:56.453Z,20.10
2019-02-15T12:58:26.312Z,17.80
2019-02-15T13:00:56.268Z,20.90
2019-02-15T13:03:26.406Z,22.43
2019-02-15T13:05:56.226Z,20.50
2019-02-15T13:08:26.060Z,21.20
2019-02-15T13:10:56.468Z,22.23
2019-02-15T13:13:26.950Z,22.07
2019-02-15T13:15:56.515Z,23.00
2019-02-15T13:18:26.684Z,21.70
2019-02-15T13:20:56.728Z,22.67
2019-02-15T13:23:26.514Z,23.93
2019-02-15T13:25:56.706Z,23.00
2019-02-15T13:28:26.618Z,22.67
2019-02-15T13:30:56.397Z,23.40
2019-02-15T13:33:26.581Z,24.33
2019-02-15T13:35:56.378Z,24.23
2019-02-15T13:38:26.222Z,22.87
2019-02-15T13:40:56.290Z,23.50
2019-02-15T13:43:26.234Z,21.97
2019-02-15T13:45:56.059Z,29.23
2019-02-15T13:48:26.288Z,22.03
2019-02-15T13:50:56.485Z,21.03
2019-02-15T13:53:26.383Z,21.80
2019-02-15T13:55:56.417Z,21.80
2019-02-15T13:58:26.566Z,22.57
2019-02-15T14:00:56.294Z,20.47
2019-02-15T14:03:26.378Z,20.47
2019-02-15T14:05:56.514Z,21.83
2019-02-15T14:08:26.452Z,20.53
2019-02-15T14:10:56.282Z,19.83
2019-02-15T14:13:26.310Z,20.83
2019-02-15T14:15:56.241Z,21.73
2019-02-15T14:18:26.209Z,20.23
2019-02-15T14:20:56.030Z,19.37
2019-02-15T14:23:25.804Z,19.93
2019-02-15T14:25:55.928Z,20.90
2019-02-15T14:28:25.563Z,20.23
2019-02-15T14:30:55.483Z,18.90
2019-02-15T14:33:25.612Z,18.20
2019-02-15T14:35:55.610Z,19.23
2019-02-15T14:38:28.256Z,18.37
2019-02-15T14:40:57.920Z,18.63
2019-02-15T14:43:27.602Z,17.97
2019-02-15T14:45:57.468Z,17.03
2019-02-15T14:48:27.137Z,17.93
2019-02-15T14:50:56.907Z,17.03
2019-02-15T14:53:26.782Z,16.93
2019-02-15T14:55:56.483Z,17.00
2019-02-15T14:58:26.423Z,16.07
2019-02-15T15:00:56.776Z,16.13
2019-02-15T15:03:26.589Z,16.30
2019-02-15T15:05:57.259Z,15.47
2019-02-15T15:08:26.998Z,15.60
2019-02-15T15:10:56.950Z,15.30
2019-02-15T15:13:27.040Z,15.30
2019-02-15T15:15:56.814Z,15.90
2019-02-15T15:18:26.448Z,16.03
2019-02-15T15:20:56.351Z,15.40
2019-02-15T15:23:26.279Z,17.20
2019-02-15T15:25:58.723Z,15.50
2019-02-15T15:28:31.314Z,15.40
2019-02-15T15:31:07.585Z,15.23
2019-02-15T15:33:37.552Z,15.57
2019-02-15T15:36:08.137Z,14.20
2019-02-15T15:38:38.242Z,14.20
2019-02-15T15:41:08.411Z,14.90
2019-02-15T15:43:38.760Z,14.27
2019-02-15T15:46:08.652Z,13.43
2019-02-15T15:48:40.432Z,13.80
2019-02-15T15:51:10.302Z,13.20
2019-02-15T15:53:39.986Z,13.80
2019-02-15T15:56:10.092Z,14.63
2019-02-15T15:58:40.026Z,13.97
2019-02-15T16:01:10.066Z,14.10
2019-02-15T16:03:40.323Z,14.83
2019-02-15T16:06:10.263Z,13.10
2019-02-15T16:08:40.085Z,13.47
2019-02-15T16:11:12.547Z,12.80
2019-02-15T16:13:42.361Z,11.87
2019-02-15T16:16:12.172Z,12.30
2019-02-15T16:18:42.099Z,11.77
2019-02-15T16:21:11.830Z,12.23
2019-02-15T16:23:51.308Z,11.70
2019-02-15T16:26:21.265Z,11.37
2019-02-15T16:28:56.291Z,12.00
2019-02-15T16:31:33.012Z,12.07
2019-02-15T16:34:03.363Z,12.30
2019-02-15T16:36:33.109Z,11.97
2019-02-15T16:39:03.518Z,12.30
2019-02-15T16:41:33.345Z,12.13
2019-02-15T16:44:03.249Z,13.40
2019-02-15T16:46:33.206Z,13.17
2019-02-15T16:49:03.326Z,12.80
2019-02-15T16:51:32.998Z,12.53
2019-02-15T16:54:02.666Z,12.90
2019-02-15T16:56:32.901Z,13.83
2019-02-15T16:59:02.906Z,13.80
2019-02-15T17:01:32.791Z,13.20
2019-02-15T17:04:02.942Z,13.07
2019-02-15T17:06:33.420Z,12.47
2019-02-15T17:09:04.811Z,13.03
2019-02-15T17:11:34.797Z,13.73
2019-02-15T17:14:04.763Z,13.53
2019-02-15T17:16:34.968Z,14.77
2019-02-15T17:19:04.887Z,13.40
2019-02-15T17:21:34.580Z,14.60
2019-02-15T17:24:04.535Z,13.67
2019-02-15T17:26:34.161Z,14.33
2019-02-15T17:29:07.174Z,16.03
2019-02-15T17:31:36.839Z,14.23
2019-02-15T17:34:06.564Z,15.27
2019-02-15T17:36:36.526Z,15.23
2019-02-15T17:39:07.534Z,14.20
2019-02-15T17:41:37.530Z,15.63
2019-02-15T17:44:07.411Z,15.20
2019-02-15T17:46:37.159Z,15.83
2019-02-15T17:49:07.092Z,16.30
2019-02-15T17:51:36.920Z,17.23
2019-02-15T17:54:09.273Z,17.73
2019-02-15T17:56:39.215Z,18.27
2019-02-15T17:59:09.064Z,18.40
2019-02-15T18:01:38.709Z,18.33
2019-02-15T18:04:08.802Z,18.40
2019-02-15T18:06:38.506Z,20.67
2019-02-15T18:09:08.396Z,19.53
2019-02-15T18:11:38.223Z,20.67
2019-02-15T18:14:08.375Z,22.70
2019-02-15T18:16:38.249Z,21.13
2019-02-15T18:19:10.109Z,21.07
2019-02-15T18:21:39.225Z,22.10
2019-02-15T18:24:08.864Z,21.07
2019-02-15T18:26:38.618Z,19.73
2019-02-15T18:29:08.318Z,20.23
2019-02-15T18:31:38.403Z,21.77
2019-02-15T18:34:08.267Z,22.23
2019-02-15T18:36:37.961Z,21.80
2019-02-15T18:39:08.809Z,22.20
2019-02-15T18:41:38.471Z,25.00
2019-02-15T18:44:08.177Z,23.20
2019-02-15T18:46:37.699Z,22.87
2019-02-15T18:49:07.302Z,25.33
2019-02-15T18:51:37.833Z,24.63
2019-02-15T18:54:07.654Z,26.50
2019-02-15T18:56:37.635Z,22.73
2019-02-15T18:59:07.573Z,25.27
2019-02-15T19:01:37.200Z,23.93
2019-02-15T19:04:06.826Z,25.80
2019-02-15T19:06:36.566Z,26.00
2019-02-15T19:09:07.988Z,26.83
2019-02-15T19:11:37.968Z,25.00
2019-02-15T19:14:07.933Z,26.70
2019-02-15T19:16:37.625Z,24.60
2019-02-15T19:19:07.535Z,26.27
2019-02-15T19:21:37.258Z,26.00
2019-02-15T19:24:07.128Z,23.57
2019-02-15T19:26:36.801Z,25.07
2019-02-15T19:29:06.514Z,25.83
2019-02-15T19:31:36.217Z,26.67
2019-02-15T19:34:06.052Z,26.80
2019-02-15T19:36:35.775Z,27.27
2019-02-15T19:39:07.347Z,26.13
2019-02-15T19:41:37.050Z,26.20
2019-02-15T19:44:06.760Z,26.43
2019-02-15T19:46:36.497Z,26.67
2019-02-15T19:49:06.237Z,27.60
2019-02-15T19:51:36.050Z,27.70
2019-02-15T19:54:05.942Z,28.70
2019-02-15T19:56:35.769Z,27.73
2019-02-15T19:59:05.463Z,27.80
2019-02-15T20:01:35.301Z,28.80
2019-02-15T20:04:04.942Z,29.50
2019-02-15T20:06:35.058Z,30.40
2019-02-15T20:09:05.846Z,29.23
2019-02-15T20:11:35.539Z,31.47
2019-02-15T20:14:05.277Z,32.70
2019-02-15T20:16:35.339Z,30.63
2019-02-15T20:19:04.998Z,31.30
2019-02-15T20:21:34.653Z,30.00
2019-02-15T20:24:04.773Z,30.67
2019-02-15T20:26:34.603Z,30.93
2019-02-15T20:29:04.430Z,30.13
2019-02-15T20:31:34.067Z,30.87
2019-02-15T20:34:03.703Z,30.83
2019-02-15T20:36:33.611Z,30.33
2019-02-15T20:39:04.053Z,30.27
2019-02-15T20:41:33.685Z,29.90
2019-02-15T20:44:03.330Z,29.70
2019-02-15T20:46:33.339Z,28.60
2019-02-15T20:49:04.870Z,29.47
2019-02-15T20:51:34.485Z,29.40
2019-02-15T20:54:04.166Z,29.10
2019-02-15T20:56:33.964Z,26.90
2019-02-15T20:59:03.910Z,25.30
2019-02-15T21:01:33.738Z,26.60
2019-02-15T21:04:03.972Z,24.90
2019-02-15T21:06:33.808Z,24.73
2019-02-15T21:09:04.626Z,24.10
2019-02-15T21:11:34.585Z,23.70
2019-02-15T21:14:04.405Z,22.70
2019-02-15T21:16:34.384Z,22.87
2019-02-15T21:19:04.041Z,22.50
2019-02-15T21:21:33.916Z,22.03
2019-02-15T21:24:04.040Z,23.10
2019-02-15T21:26:35.909Z,21.30
2019-02-15T21:29:05.764Z,25.60
2019-02-15T21:31:35.555Z,20.50
2019-02-15T21:34:05.698Z,20.33
2019-02-15T21:36:35.598Z,20.83
2019-02-15T21:39:07.396Z,18.90
2019-02-15T21:41:37.185Z,18.37
2019-02-15T21:44:07.204Z,18.57
2019-02-15T21:46:37.197Z,18.90
2019-02-15T21:49:06.842Z,18.77
2019-02-15T21:51:36.703Z,19.43
2019-02-15T21:54:06.625Z,17.30
2019-02-15T21:56:36.394Z,16.73
2019-02-15T21:59:06.119Z,16.93
2019-02-15T22:01:36.314Z,17.73
2019-02-15T22:04:05.964Z,16.50
2019-02-15T22:06:35.846Z,16.63
2019-02-15T22:09:07.069Z,17.00
2019-02-15T22:11:37.294Z,16.93
2019-02-15T22:14:07.226Z,15.93
2019-02-15T22:16:37.359Z,16.50
2019-02-15T22:19:07.563Z,17.03
2019-02-15T22:21:37.545Z,16.97
2019-02-15T22:24:07.470Z,16.57
2019-02-15T22:26:37.264Z,15.80
2019-02-15T22:29:07.008Z,16.23
2019-02-15T22:31:37.309Z,16.50
2019-02-15T22:34:07.097Z,15.57
2019-02-15T22:36:37.017Z,15.57
2019-02-15T22:39:07.723Z,15.23
2019-02-15T22:41:38.044Z,15.00
2019-02-15T22:44:13.995Z,14.63
2019-02-15T22:46:44.469Z,14.27
2019-02-15T22:49:14.212Z,13.63
2019-02-15T22:51:44.302Z,14.33
2019-02-15T22:54:14.093Z,14.93
2019-02-15T22:56:43.853Z,15.43
2019-02-15T22:59:14.127Z,14.00
2019-02-15T23:01:44.670Z,15.00
2019-02-15T23:04:14.835Z,14.77
2019-02-15T23:06:45.186Z,14.73
2019-02-15T23:09:25.534Z,15.00
2019-02-15T23:11:55.876Z,15.47
2019-02-15T23:14:25.571Z,12.43
2019-02-15T23:16:55.556Z,14.37
2019-02-15T23:19:25.646Z,14.97
2019-02-15T23:21:55.437Z,15.47
2019-02-15T23:24:25.512Z,16.80
2019-02-15T23:26:55.525Z,15.17
2019-02-15T23:29:25.410Z,14.83
2019-02-15T23:31:55.955Z,14.43
2019-02-15T23:34:25.568Z,15.07
2019-02-15T23:36:55.539Z,15.33
2019-02-15T23:39:25.534Z,15.77
2019-02-15T23:41:55.580Z,14.77
2019-02-15T23:44:25.694Z,15.70
2019-02-15T23:46:57.988Z,15.77
2019-02-15T23:49:27.807Z,16.00
2019-02-15T23:51:57.891Z,15.40
2019-02-15T23:54:27.624Z,16.27
2019-02-15T23:56:58.738Z,15.43
2019-02-15T23:59:28.726Z,16.03
